sensor_id;sensor_type;location;lat;lon;timestamp;P1;durP1;ratioP1;P2;durP2;ratioP2
62848;SDS011;48941;49.516;8.286;2023-06-22T00:00:32;8.60;;;6.15;;
62848;SDS011;48941;49.516;8.286;2023-06-22T00:03:00;8.65;;;5.85;;
62848;SDS011;48941;49.516;8.286;2023-06-22T00:05:27;7.97;;;6.15;;
62848;SDS011;48941;49.516;8.286;2023-06-22T00:07:55;6.93;;;5.60;;
62848;SDS011;48941;49.516;8.286;2023-06-22T00:10:24;9.30;;;5.70;;
62848;SDS011;48941;49.516;8.286;2023-06-22T00:12:53;7.65;;;6.00;;
62848;SDS011;48941;49.516;8.286;2023-06-22T00:15:21;7.60;;;5.47;;
62848;SDS011;48941;49.516;8.286;2023-06-22T00:17:48;8.02;;;5.63;;
62848;SDS011;48941;49.516;8.286;2023-06-22T00:20:16;7.72;;;5.60;;
62848;SDS011;48941;49.516;8.286;2023-06-22T00:22:46;7.15;;;5.60;;
62848;SDS011;48941;49.516;8.286;2023-06-22T00:25:14;8.63;;;5.30;;
62848;SDS011;48941;49.516;8.286;2023-06-22T00:27:43;7.45;;;5.20;;
62848;SDS011;48941;49.516;8.286;2023-06-22T00:30:11;6.20;;;5.25;;
62848;SDS011;48941;49.516;8.286;2023-06-22T00:32:40;7.03;;;5.13;;
62848;SDS011;48941;49.516;8.286;2023-06-22T00:35:08;6.97;;;5.40;;
62848;SDS011;48941;49.516;8.286;2023-06-22T00:37:36;6.93;;;5.30;;
62848;SDS011;48941;49.516;8.286;2023-06-22T00:40:05;6.05;;;4.63;;
62848;SDS011;48941;49.516;8.286;2023-06-22T00:42:34;18.52;;;5.57;;
62848;SDS011;48941;49.516;8.286;2023-06-22T00:45:03;12.70;;;5.30;;
62848;SDS011;48941;49.516;8.286;2023-06-22T00:47:32;15.55;;;6.78;;
62848;SDS011;48941;49.516;8.286;2023-06-22T00:50:02;12.45;;;6.63;;
62848;SDS011;48941;49.516;8.286;2023-06-22T00:52:33;13.35;;;6.78;;
62848;SDS011;48941;49.516;8.286;2023-06-22T00:55:02;16.02;;;7.65;;
62848;SDS011;48941;49.516;8.286;2023-06-22T00:57:30;11.65;;;7.05;;
62848;SDS011;48941;49.516;8.286;2023-06-22T00:59:58;13.75;;;6.75;;
62848;SDS011;48941;49.516;8.286;2023-06-22T01:02:27;14.00;;;7.45;;
62848;SDS011;48941;49.516;8.286;2023-06-22T01:04:56;11.25;;;6.95;;
62848;SDS011;48941;49.516;8.286;2023-06-22T01:07:25;11.88;;;7.07;;
62848;SDS011;48941;49.516;8.286;2023-06-22T01:10:00;13.23;;;7.40;;
62848;SDS011;48941;49.516;8.286;2023-06-22T01:12:38;10.73;;;7.20;;
62848;SDS011;48941;49.516;8.286;2023-06-22T01:15:11;11.57;;;7.60;;
62848;SDS011;48941;49.516;8.286;2023-06-22T01:17:44;12.48;;;7.18;;
62848;SDS011;48941;49.516;8.286;2023-06-22T01:20:13;16.75;;;7.10;;
62848;SDS011;48941;49.516;8.286;2023-06-22T01:22:46;14.48;;;7.80;;
62848;SDS011;48941;49.516;8.286;2023-06-22T01:25:26;9.53;;;7.30;;
62848;SDS011;48941;49.516;8.286;2023-06-22T01:28:00;17.13;;;7.82;;
62848;SDS011;48941;49.516;8.286;2023-06-22T01:30:43;9.25;;;7.32;;
62848;SDS011;48941;49.516;8.286;2023-06-22T01:33:13;16.20;;;7.80;;
62848;SDS011;48941;49.516;8.286;2023-06-22T01:35:42;10.07;;;7.53;;
62848;SDS011;48941;49.516;8.286;2023-06-22T01:38:11;12.48;;;8.45;;
62848;SDS011;48941;49.516;8.286;2023-06-22T01:40:39;11.80;;;7.95;;
62848;SDS011;48941;49.516;8.286;2023-06-22T01:43:08;10.70;;;7.95;;
62848;SDS011;48941;49.516;8.286;2023-06-22T01:45:36;11.88;;;7.70;;
62848;SDS011;48941;49.516;8.286;2023-06-22T01:48:05;11.73;;;7.75;;
62848;SDS011;48941;49.516;8.286;2023-06-22T01:50:34;10.45;;;7.50;;
62848;SDS011;48941;49.516;8.286;2023-06-22T01:53:02;9.90;;;7.85;;
62848;SDS011;48941;49.516;8.286;2023-06-22T01:55:31;13.48;;;8.10;;
62848;SDS011;48941;49.516;8.286;2023-06-22T01:57:59;17.20;;;8.32;;
62848;SDS011;48941;49.516;8.286;2023-06-22T02:00:28;13.50;;;8.23;;
62848;SDS011;48941;49.516;8.286;2023-06-22T02:02:59;11.63;;;8.93;;
62848;SDS011;48941;49.516;8.286;2023-06-22T02:05:33;13.77;;;8.73;;
62848;SDS011;48941;49.516;8.286;2023-06-22T02:08:05;11.30;;;8.90;;
62848;SDS011;48941;49.516;8.286;2023-06-22T02:10:37;15.35;;;8.43;;
62848;SDS011;48941;49.516;8.286;2023-06-22T02:13:08;11.77;;;8.32;;
62848;SDS011;48941;49.516;8.286;2023-06-22T02:15:37;12.38;;;8.18;;
62848;SDS011;48941;49.516;8.286;2023-06-22T02:18:05;11.45;;;8.68;;
62848;SDS011;48941;49.516;8.286;2023-06-22T02:20:37;10.35;;;8.20;;
62848;SDS011;48941;49.516;8.286;2023-06-22T02:23:05;12.27;;;8.55;;
62848;SDS011;48941;49.516;8.286;2023-06-22T02:25:34;13.82;;;8.65;;
62848;SDS011;48941;49.516;8.286;2023-06-22T02:28:02;10.80;;;8.10;;
62848;SDS011;48941;49.516;8.286;2023-06-22T02:30:31;11.60;;;8.57;;
62848;SDS011;48941;49.516;8.286;2023-06-22T02:32:59;11.93;;;8.25;;
62848;SDS011;48941;49.516;8.286;2023-06-22T02:35:27;11.50;;;8.23;;
62848;SDS011;48941;49.516;8.286;2023-06-22T02:37:59;12.68;;;8.80;;
62848;SDS011;48941;49.516;8.286;2023-06-22T02:40:27;14.48;;;9.60;;
62848;SDS011;48941;49.516;8.286;2023-06-22T02:42:57;13.80;;;9.30;;
62848;SDS011;48941;49.516;8.286;2023-06-22T02:45:29;11.95;;;9.13;;
62848;SDS011;48941;49.516;8.286;2023-06-22T02:47:57;13.43;;;9.18;;
62848;SDS011;48941;49.516;8.286;2023-06-22T02:50:25;13.73;;;9.65;;
62848;SDS011;48941;49.516;8.286;2023-06-22T02:52:53;12.80;;;9.82;;
62848;SDS011;48941;49.516;8.286;2023-06-22T02:55:22;13.35;;;9.48;;
62848;SDS011;48941;49.516;8.286;2023-06-22T02:57:51;13.60;;;9.88;;
62848;SDS011;48941;49.516;8.286;2023-06-22T03:00:19;12.00;;;9.73;;
62848;SDS011;48941;49.516;8.286;2023-06-22T03:02:48;12.85;;;9.95;;
62848;SDS011;48941;49.516;8.286;2023-06-22T03:05:16;16.20;;;10.18;;
62848;SDS011;48941;49.516;8.286;2023-06-22T03:07:45;13.43;;;10.10;;
62848;SDS011;48941;49.516;8.286;2023-06-22T03:10:13;15.05;;;10.65;;
62848;SDS011;48941;49.516;8.286;2023-06-22T03:12:43;14.23;;;10.95;;
62848;SDS011;48941;49.516;8.286;2023-06-22T03:15:12;13.00;;;10.65;;
62848;SDS011;48941;49.516;8.286;2023-06-22T03:17:40;14.05;;;11.27;;
62848;SDS011;48941;49.516;8.286;2023-06-22T03:20:08;17.13;;;11.80;;
62848;SDS011;48941;49.516;8.286;2023-06-22T03:22:38;15.07;;;11.73;;
62848;SDS011;48941;49.516;8.286;2023-06-22T03:25:07;13.60;;;11.38;;
62848;SDS011;48941;49.516;8.286;2023-06-22T03:27:39;17.13;;;11.18;;
62848;SDS011;48941;49.516;8.286;2023-06-22T03:30:09;17.90;;;11.73;;
62848;SDS011;48941;49.516;8.286;2023-06-22T03:32:38;15.90;;;12.38;;
62848;SDS011;48941;49.516;8.286;2023-06-22T03:35:06;16.67;;;11.55;;
62848;SDS011;48941;49.516;8.286;2023-06-22T03:37:34;16.73;;;12.27;;
62848;SDS011;48941;49.516;8.286;2023-06-22T03:40:02;15.07;;;11.73;;
62848;SDS011;48941;49.516;8.286;2023-06-22T03:42:33;16.73;;;11.73;;
62848;SDS011;48941;49.516;8.286;2023-06-22T03:45:01;12.52;;;10.85;;
62848;SDS011;48941;49.516;8.286;2023-06-22T03:47:31;16.45;;;12.38;;
62848;SDS011;48941;49.516;8.286;2023-06-22T03:49:59;15.77;;;12.32;;
62848;SDS011;48941;49.516;8.286;2023-06-22T03:52:29;13.85;;;11.00;;
62848;SDS011;48941;49.516;8.286;2023-06-22T03:54:57;15.20;;;11.70;;
62848;SDS011;48941;49.516;8.286;2023-06-22T03:57:25;15.02;;;11.10;;
62848;SDS011;48941;49.516;8.286;2023-06-22T03:59:54;15.55;;;10.95;;
62848;SDS011;48941;49.516;8.286;2023-06-22T04:02:24;15.23;;;11.05;;
62848;SDS011;48941;49.516;8.286;2023-06-22T04:04:53;16.23;;;11.35;;
62848;SDS011;48941;49.516;8.286;2023-06-22T04:07:21;14.95;;;12.10;;
62848;SDS011;48941;49.516;8.286;2023-06-22T04:09:49;21.15;;;12.77;;
62848;SDS011;48941;49.516;8.286;2023-06-22T04:12:17;18.83;;;12.82;;
62848;SDS011;48941;49.516;8.286;2023-06-22T04:14:45;15.55;;;12.65;;
62848;SDS011;48941;49.516;8.286;2023-06-22T04:17:13;16.88;;;13.07;;
62848;SDS011;48941;49.516;8.286;2023-06-22T04:19:41;18.92;;;12.98;;
62848;SDS011;48941;49.516;8.286;2023-06-22T04:22:10;16.65;;;13.02;;
62848;SDS011;48941;49.516;8.286;2023-06-22T04:24:38;17.48;;;12.40;;
62848;SDS011;48941;49.516;8.286;2023-06-22T04:27:06;13.98;;;11.25;;
62848;SDS011;48941;49.516;8.286;2023-06-22T04:29:34;16.98;;;12.45;;
62848;SDS011;48941;49.516;8.286;2023-06-22T04:32:02;16.30;;;12.93;;
62848;SDS011;48941;49.516;8.286;2023-06-22T04:34:31;19.17;;;11.82;;
62848;SDS011;48941;49.516;8.286;2023-06-22T04:36:59;17.50;;;12.52;;
62848;SDS011;48941;49.516;8.286;2023-06-22T04:39:28;17.30;;;12.65;;
62848;SDS011;48941;49.516;8.286;2023-06-22T04:41:57;16.38;;;12.13;;
62848;SDS011;48941;49.516;8.286;2023-06-22T04:44:27;23.05;;;12.00;;
62848;SDS011;48941;49.516;8.286;2023-06-22T04:46:55;16.48;;;12.57;;
62848;SDS011;48941;49.516;8.286;2023-06-22T04:49:27;16.63;;;12.82;;
62848;SDS011;48941;49.516;8.286;2023-06-22T04:54:26;22.08;;;12.13;;
62848;SDS011;48941;49.516;8.286;2023-06-22T04:59:27;21.45;;;12.60;;
62848;SDS011;48941;49.516;8.286;2023-06-22T05:01:56;17.42;;;12.75;;
62848;SDS011;48941;49.516;8.286;2023-06-22T05:04:25;18.55;;;12.07;;
62848;SDS011;48941;49.516;8.286;2023-06-22T05:06:58;16.55;;;11.93;;
62848;SDS011;48941;49.516;8.286;2023-06-22T05:09:26;15.30;;;12.00;;
62848;SDS011;48941;49.516;8.286;2023-06-22T05:11:57;13.43;;;11.60;;
62848;SDS011;48941;49.516;8.286;2023-06-22T05:14:26;20.25;;;12.52;;
62848;SDS011;48941;49.516;8.286;2023-06-22T05:16:54;17.45;;;12.00;;
62848;SDS011;48941;49.516;8.286;2023-06-22T05:19:24;15.38;;;12.25;;
62848;SDS011;48941;49.516;8.286;2023-06-22T05:21:59;17.98;;;12.40;;
62848;SDS011;48941;49.516;8.286;2023-06-22T05:24:28;16.00;;;12.80;;
62848;SDS011;48941;49.516;8.286;2023-06-22T05:26:56;18.50;;;12.30;;
62848;SDS011;48941;49.516;8.286;2023-06-22T05:29:24;18.98;;;12.50;;
62848;SDS011;48941;49.516;8.286;2023-06-22T05:31:53;19.45;;;12.38;;
62848;SDS011;48941;49.516;8.286;2023-06-22T05:34:21;21.80;;;12.07;;
62848;SDS011;48941;49.516;8.286;2023-06-22T05:36:48;15.43;;;11.75;;
62848;SDS011;48941;49.516;8.286;2023-06-22T05:39:16;13.80;;;11.52;;
62848;SDS011;48941;49.516;8.286;2023-06-22T05:41:45;15.75;;;12.30;;
62848;SDS011;48941;49.516;8.286;2023-06-22T05:44:13;15.85;;;12.80;;
62848;SDS011;48941;49.516;8.286;2023-06-22T05:46:43;16.20;;;11.75;;
62848;SDS011;48941;49.516;8.286;2023-06-22T05:49:12;18.15;;;12.55;;
62848;SDS011;48941;49.516;8.286;2023-06-22T05:51:41;16.00;;;11.50;;
62848;SDS011;48941;49.516;8.286;2023-06-22T05:54:09;18.30;;;12.27;;
62848;SDS011;48941;49.516;8.286;2023-06-22T05:56:39;17.83;;;11.80;;
62848;SDS011;48941;49.516;8.286;2023-06-22T05:59:08;15.40;;;11.77;;
62848;SDS011;48941;49.516;8.286;2023-06-22T06:01:36;15.52;;;11.98;;
62848;SDS011;48941;49.516;8.286;2023-06-22T06:04:06;13.82;;;11.02;;
62848;SDS011;48941;49.516;8.286;2023-06-22T06:06:34;13.00;;;11.27;;
62848;SDS011;48941;49.516;8.286;2023-06-22T06:09:03;17.75;;;11.27;;
62848;SDS011;48941;49.516;8.286;2023-06-22T06:11:31;17.08;;;11.95;;
62848;SDS011;48941;49.516;8.286;2023-06-22T06:14:00;21.00;;;12.00;;
62848;SDS011;48941;49.516;8.286;2023-06-22T06:16:30;15.95;;;11.32;;
62848;SDS011;48941;49.516;8.286;2023-06-22T06:18:57;17.30;;;12.15;;
62848;SDS011;48941;49.516;8.286;2023-06-22T06:21:25;14.60;;;11.27;;
62848;SDS011;48941;49.516;8.286;2023-06-22T06:23:56;13.63;;;10.45;;
62848;SDS011;48941;49.516;8.286;2023-06-22T06:26:25;17.38;;;11.50;;
62848;SDS011;48941;49.516;8.286;2023-06-22T06:28:56;13.68;;;10.20;;
62848;SDS011;48941;49.516;8.286;2023-06-22T06:31:24;14.02;;;10.07;;
62848;SDS011;48941;49.516;8.286;2023-06-22T06:33:56;14.02;;;10.02;;
62848;SDS011;48941;49.516;8.286;2023-06-22T06:36:24;14.40;;;9.98;;
62848;SDS011;48941;49.516;8.286;2023-06-22T06:38:51;11.50;;;8.60;;
62848;SDS011;48941;49.516;8.286;2023-06-22T06:41:19;8.93;;;7.68;;
62848;SDS011;48941;49.516;8.286;2023-06-22T06:43:47;9.70;;;7.82;;
62848;SDS011;48941;49.516;8.286;2023-06-22T06:46:15;11.27;;;7.80;;
62848;SDS011;48941;49.516;8.286;2023-06-22T06:48:45;9.77;;;8.13;;
62848;SDS011;48941;49.516;8.286;2023-06-22T06:51:14;12.70;;;7.90;;
62848;SDS011;48941;49.516;8.286;2023-06-22T06:53:41;10.90;;;8.18;;
62848;SDS011;48941;49.516;8.286;2023-06-22T06:56:09;9.45;;;7.70;;
62848;SDS011;48941;49.516;8.286;2023-06-22T06:58:40;9.43;;;7.70;;
62848;SDS011;48941;49.516;8.286;2023-06-22T07:01:08;11.10;;;8.05;;
62848;SDS011;48941;49.516;8.286;2023-06-22T07:03:36;10.30;;;7.15;;
62848;SDS011;48941;49.516;8.286;2023-06-22T07:06:07;12.55;;;7.45;;
62848;SDS011;48941;49.516;8.286;2023-06-22T07:08:37;9.65;;;7.68;;
62848;SDS011;48941;49.516;8.286;2023-06-22T07:11:06;9.60;;;7.38;;
62848;SDS011;48941;49.516;8.286;2023-06-22T07:13:34;9.73;;;7.65;;
62848;SDS011;48941;49.516;8.286;2023-06-22T07:16:02;10.82;;;7.32;;
62848;SDS011;48941;49.516;8.286;2023-06-22T07:18:30;9.70;;;7.90;;
62848;SDS011;48941;49.516;8.286;2023-06-22T07:20:57;9.82;;;7.80;;
62848;SDS011;48941;49.516;8.286;2023-06-22T07:23:25;13.85;;;8.52;;
62848;SDS011;48941;49.516;8.286;2023-06-22T07:25:54;9.73;;;7.30;;
62848;SDS011;48941;49.516;8.286;2023-06-22T07:28:22;9.85;;;7.55;;
62848;SDS011;48941;49.516;8.286;2023-06-22T07:30:50;12.73;;;7.90;;
62848;SDS011;48941;49.516;8.286;2023-06-22T07:33:18;10.48;;;7.55;;
62848;SDS011;48941;49.516;8.286;2023-06-22T07:35:46;10.23;;;7.93;;
62848;SDS011;48941;49.516;8.286;2023-06-22T07:38:14;9.15;;;7.25;;
62848;SDS011;48941;49.516;8.286;2023-06-22T07:40:42;9.35;;;7.70;;
62848;SDS011;48941;49.516;8.286;2023-06-22T07:43:12;10.55;;;8.60;;
62848;SDS011;48941;49.516;8.286;2023-06-22T07:45:40;10.52;;;8.55;;
62848;SDS011;48941;49.516;8.286;2023-06-22T07:48:19;15.23;;;8.52;;
62848;SDS011;48941;49.516;8.286;2023-06-22T07:50:47;10.50;;;7.65;;
62848;SDS011;48941;49.516;8.286;2023-06-22T07:53:15;15.07;;;8.10;;
62848;SDS011;48941;49.516;8.286;2023-06-22T07:55:43;9.80;;;7.70;;
62848;SDS011;48941;49.516;8.286;2023-06-22T07:58:16;9.68;;;7.63;;
62848;SDS011;48941;49.516;8.286;2023-06-22T08:00:45;10.07;;;8.00;;
62848;SDS011;48941;49.516;8.286;2023-06-22T08:03:15;11.70;;;8.43;;
62848;SDS011;48941;49.516;8.286;2023-06-22T08:05:43;10.57;;;7.75;;
62848;SDS011;48941;49.516;8.286;2023-06-22T08:08:15;12.55;;;8.07;;
62848;SDS011;48941;49.516;8.286;2023-06-22T08:10:43;11.68;;;7.65;;
62848;SDS011;48941;49.516;8.286;2023-06-22T08:13:10;9.88;;;7.68;;
62848;SDS011;48941;49.516;8.286;2023-06-22T08:15:40;8.98;;;7.88;;
62848;SDS011;48941;49.516;8.286;2023-06-22T08:18:08;9.35;;;7.32;;
62848;SDS011;48941;49.516;8.286;2023-06-22T08:20:35;10.45;;;7.22;;
62848;SDS011;48941;49.516;8.286;2023-06-22T08:23:03;9.45;;;7.75;;
62848;SDS011;48941;49.516;8.286;2023-06-22T08:25:32;9.85;;;7.50;;
62848;SDS011;48941;49.516;8.286;2023-06-22T08:28:01;14.38;;;7.40;;
62848;SDS011;48941;49.516;8.286;2023-06-22T08:30:29;10.60;;;7.90;;
62848;SDS011;48941;49.516;8.286;2023-06-22T08:32:58;16.50;;;8.32;;
62848;SDS011;48941;49.516;8.286;2023-06-22T08:35:26;23.30;;;8.90;;
62848;SDS011;48941;49.516;8.286;2023-06-22T08:37:56;9.15;;;7.15;;
62848;SDS011;48941;49.516;8.286;2023-06-22T08:40:24;9.43;;;7.75;;
62848;SDS011;48941;49.516;8.286;2023-06-22T08:42:54;8.38;;;7.00;;
62848;SDS011;48941;49.516;8.286;2023-06-22T08:45:22;13.38;;;7.50;;
62848;SDS011;48941;49.516;8.286;2023-06-22T08:47:52;8.35;;;7.28;;
62848;SDS011;48941;49.516;8.286;2023-06-22T08:50:21;8.07;;;7.25;;
62848;SDS011;48941;49.516;8.286;2023-06-22T08:52:49;11.38;;;6.97;;
62848;SDS011;48941;49.516;8.286;2023-06-22T08:55:17;11.82;;;7.68;;
62848;SDS011;48941;49.516;8.286;2023-06-22T08:57:44;12.75;;;7.38;;
62848;SDS011;48941;49.516;8.286;2023-06-22T09:00:13;9.68;;;7.55;;
62848;SDS011;48941;49.516;8.286;2023-06-22T09:02:43;11.53;;;7.70;;
62848;SDS011;48941;49.516;8.286;2023-06-22T09:05:12;9.75;;;7.20;;
62848;SDS011;48941;49.516;8.286;2023-06-22T09:07:42;10.07;;;7.40;;
62848;SDS011;48941;49.516;8.286;2023-06-22T09:10:10;8.93;;;7.22;;
62848;SDS011;48941;49.516;8.286;2023-06-22T09:12:38;8.65;;;7.07;;
62848;SDS011;48941;49.516;8.286;2023-06-22T09:15:07;9.75;;;7.93;;
62848;SDS011;48941;49.516;8.286;2023-06-22T09:17:41;13.63;;;8.10;;
62848;SDS011;48941;49.516;8.286;2023-06-22T09:20:10;11.98;;;7.70;;
62848;SDS011;48941;49.516;8.286;2023-06-22T09:22:38;13.02;;;7.93;;
62848;SDS011;48941;49.516;8.286;2023-06-22T09:25:08;13.25;;;7.80;;
62848;SDS011;48941;49.516;8.286;2023-06-22T09:27:37;10.80;;;7.10;;
62848;SDS011;48941;49.516;8.286;2023-06-22T09:30:05;9.98;;;7.53;;
62848;SDS011;48941;49.516;8.286;2023-06-22T09:32:34;10.45;;;7.30;;
62848;SDS011;48941;49.516;8.286;2023-06-22T09:35:03;12.00;;;8.07;;
62848;SDS011;48941;49.516;8.286;2023-06-22T09:37:33;14.05;;;7.47;;
62848;SDS011;48941;49.516;8.286;2023-06-22T09:40:01;9.80;;;6.68;;
62848;SDS011;48941;49.516;8.286;2023-06-22T09:42:35;12.50;;;6.05;;
62848;SDS011;48941;49.516;8.286;2023-06-22T09:45:04;9.57;;;6.22;;
62848;SDS011;48941;49.516;8.286;2023-06-22T09:47:32;10.85;;;6.22;;
62848;SDS011;48941;49.516;8.286;2023-06-22T09:50:00;10.45;;;6.07;;
62848;SDS011;48941;49.516;8.286;2023-06-22T09:52:28;8.27;;;5.85;;
62848;SDS011;48941;49.516;8.286;2023-06-22T09:55:13;11.95;;;5.45;;
62848;SDS011;48941;49.516;8.286;2023-06-22T09:57:44;9.85;;;5.38;;
62848;SDS011;48941;49.516;8.286;2023-06-22T10:00:12;8.73;;;5.70;;
62848;SDS011;48941;49.516;8.286;2023-06-22T10:02:41;9.20;;;5.28;;
62848;SDS011;48941;49.516;8.286;2023-06-22T10:05:11;8.45;;;5.45;;
62848;SDS011;48941;49.516;8.286;2023-06-22T10:07:39;13.40;;;5.63;;
62848;SDS011;48941;49.516;8.286;2023-06-22T10:10:10;10.10;;;5.65;;
62848;SDS011;48941;49.516;8.286;2023-06-22T10:12:41;8.30;;;5.60;;
62848;SDS011;48941;49.516;8.286;2023-06-22T10:15:11;8.50;;;5.30;;
62848;SDS011;48941;49.516;8.286;2023-06-22T10:17:40;6.07;;;5.07;;
62848;SDS011;48941;49.516;8.286;2023-06-22T10:20:08;9.88;;;5.18;;
62848;SDS011;48941;49.516;8.286;2023-06-22T10:22:39;10.30;;;5.10;;
62848;SDS011;48941;49.516;8.286;2023-06-22T10:25:07;10.82;;;5.50;;
62848;SDS011;48941;49.516;8.286;2023-06-22T10:27:36;17.20;;;5.68;;
62848;SDS011;48941;49.516;8.286;2023-06-22T10:30:06;8.88;;;5.25;;
62848;SDS011;48941;49.516;8.286;2023-06-22T10:32:37;9.40;;;5.50;;
62848;SDS011;48941;49.516;8.286;2023-06-22T10:35:05;9.02;;;5.50;;
62848;SDS011;48941;49.516;8.286;2023-06-22T10:37:33;9.55;;;5.57;;
62848;SDS011;48941;49.516;8.286;2023-06-22T10:40:01;8.38;;;5.22;;
62848;SDS011;48941;49.516;8.286;2023-06-22T10:42:30;9.95;;;5.68;;
62848;SDS011;48941;49.516;8.286;2023-06-22T10:44:58;10.50;;;5.53;;
62848;SDS011;48941;49.516;8.286;2023-06-22T10:47:25;16.40;;;5.93;;
62848;SDS011;48941;49.516;8.286;2023-06-22T10:49:55;13.02;;;5.95;;
62848;SDS011;48941;49.516;8.286;2023-06-22T10:52:23;7.80;;;5.40;;
62848;SDS011;48941;49.516;8.286;2023-06-22T10:54:51;8.40;;;5.70;;
62848;SDS011;48941;49.516;8.286;2023-06-22T10:57:19;13.30;;;5.97;;
62848;SDS011;48941;49.516;8.286;2023-06-22T10:59:47;9.38;;;5.78;;
62848;SDS011;48941;49.516;8.286;2023-06-22T11:02:15;8.98;;;5.35;;
62848;SDS011;48941;49.516;8.286;2023-06-22T11:04:43;12.48;;;5.82;;
62848;SDS011;48941;49.516;8.286;2023-06-22T11:07:14;9.70;;;5.88;;
62848;SDS011;48941;49.516;8.286;2023-06-22T11:09:43;11.25;;;5.60;;
62848;SDS011;48941;49.516;8.286;2023-06-22T11:12:11;9.85;;;6.03;;
62848;SDS011;48941;49.516;8.286;2023-06-22T11:14:39;10.10;;;5.93;;
62848;SDS011;48941;49.516;8.286;2023-06-22T11:17:07;12.30;;;5.90;;
62848;SDS011;48941;49.516;8.286;2023-06-22T11:19:34;9.48;;;5.57;;
62848;SDS011;48941;49.516;8.286;2023-06-22T11:22:02;11.02;;;5.97;;
62848;SDS011;48941;49.516;8.286;2023-06-22T11:24:32;14.43;;;6.25;;
62848;SDS011;48941;49.516;8.286;2023-06-22T11:27:00;9.45;;;5.55;;
62848;SDS011;48941;49.516;8.286;2023-06-22T11:29:27;17.67;;;5.50;;
62848;SDS011;48941;49.516;8.286;2023-06-22T11:32:03;10.25;;;5.80;;
62848;SDS011;48941;49.516;8.286;2023-06-22T11:34:32;9.13;;;6.13;;
62848;SDS011;48941;49.516;8.286;2023-06-22T11:37:00;11.52;;;6.10;;
62848;SDS011;48941;49.516;8.286;2023-06-22T11:39:28;11.57;;;5.68;;
62848;SDS011;48941;49.516;8.286;2023-06-22T11:42:09;10.75;;;5.93;;
62848;SDS011;48941;49.516;8.286;2023-06-22T11:44:37;15.10;;;6.10;;
62848;SDS011;48941;49.516;8.286;2023-06-22T11:47:05;13.32;;;6.00;;
62848;SDS011;48941;49.516;8.286;2023-06-22T11:49:34;11.90;;;5.68;;
62848;SDS011;48941;49.516;8.286;2023-06-22T11:52:02;7.00;;;5.60;;
62848;SDS011;48941;49.516;8.286;2023-06-22T11:54:30;10.95;;;6.30;;
62848;SDS011;48941;49.516;8.286;2023-06-22T11:56:58;8.73;;;5.70;;
62848;SDS011;48941;49.516;8.286;2023-06-22T11:59:27;10.05;;;6.03;;
62848;SDS011;48941;49.516;8.286;2023-06-22T12:01:55;8.45;;;6.03;;
62848;SDS011;48941;49.516;8.286;2023-06-22T12:04:24;8.20;;;6.00;;
62848;SDS011;48941;49.516;8.286;2023-06-22T12:06:52;11.95;;;5.82;;
62848;SDS011;48941;49.516;8.286;2023-06-22T12:09:20;10.38;;;5.50;;
62848;SDS011;48941;49.516;8.286;2023-06-22T12:11:48;14.90;;;5.90;;
62848;SDS011;48941;49.516;8.286;2023-06-22T12:14:16;10.02;;;5.90;;
62848;SDS011;48941;49.516;8.286;2023-06-22T12:16:45;10.73;;;5.80;;
62848;SDS011;48941;49.516;8.286;2023-06-22T12:19:13;11.95;;;6.10;;
62848;SDS011;48941;49.516;8.286;2023-06-22T12:21:40;9.50;;;5.63;;
62848;SDS011;48941;49.516;8.286;2023-06-22T12:24:11;8.45;;;5.93;;
62848;SDS011;48941;49.516;8.286;2023-06-22T12:26:39;8.57;;;5.75;;
62848;SDS011;48941;49.516;8.286;2023-06-22T12:29:07;9.38;;;6.13;;
62848;SDS011;48941;49.516;8.286;2023-06-22T12:31:35;12.90;;;5.97;;
62848;SDS011;48941;49.516;8.286;2023-06-22T12:34:06;9.63;;;6.10;;
62848;SDS011;48941;49.516;8.286;2023-06-22T12:36:34;11.05;;;5.80;;
62848;SDS011;48941;49.516;8.286;2023-06-22T12:39:02;15.85;;;6.30;;
62848;SDS011;48941;49.516;8.286;2023-06-22T12:41:30;12.10;;;5.72;;
62848;SDS011;48941;49.516;8.286;2023-06-22T12:43:58;15.02;;;6.47;;
62848;SDS011;48941;49.516;8.286;2023-06-22T12:46:25;9.90;;;6.45;;
62848;SDS011;48941;49.516;8.286;2023-06-22T12:48:54;14.63;;;6.20;;
62848;SDS011;48941;49.516;8.286;2023-06-22T12:51:23;9.52;;;6.18;;
62848;SDS011;48941;49.516;8.286;2023-06-22T12:53:51;11.65;;;6.10;;
62848;SDS011;48941;49.516;8.286;2023-06-22T12:56:19;12.38;;;6.40;;
62848;SDS011;48941;49.516;8.286;2023-06-22T12:58:47;11.20;;;6.28;;
62848;SDS011;48941;49.516;8.286;2023-06-22T13:01:15;12.25;;;5.90;;
62848;SDS011;48941;49.516;8.286;2023-06-22T13:03:44;12.23;;;6.20;;
62848;SDS011;48941;49.516;8.286;2023-06-22T13:06:12;10.45;;;5.68;;
62848;SDS011;48941;49.516;8.286;2023-06-22T13:08:41;11.48;;;6.00;;
62848;SDS011;48941;49.516;8.286;2023-06-22T13:11:29;11.00;;;5.82;;
62848;SDS011;48941;49.516;8.286;2023-06-22T13:13:57;11.70;;;6.00;;
62848;SDS011;48941;49.516;8.286;2023-06-22T13:16:25;12.18;;;6.28;;
62848;SDS011;48941;49.516;8.286;2023-06-22T13:18:53;8.93;;;5.72;;
62848;SDS011;48941;49.516;8.286;2023-06-22T13:21:21;12.20;;;6.32;;
62848;SDS011;48941;49.516;8.286;2023-06-22T13:23:50;11.75;;;6.13;;
62848;SDS011;48941;49.516;8.286;2023-06-22T13:26:18;14.48;;;6.47;;
62848;SDS011;48941;49.516;8.286;2023-06-22T13:28:46;11.95;;;5.80;;
62848;SDS011;48941;49.516;8.286;2023-06-22T13:31:14;16.42;;;5.80;;
62848;SDS011;48941;49.516;8.286;2023-06-22T13:33:41;14.98;;;6.68;;
62848;SDS011;48941;49.516;8.286;2023-06-22T13:36:11;9.13;;;5.38;;
62848;SDS011;48941;49.516;8.286;2023-06-22T13:38:39;13.63;;;5.95;;
62848;SDS011;48941;49.516;8.286;2023-06-22T13:41:09;11.55;;;5.65;;
62848;SDS011;48941;49.516;8.286;2023-06-22T13:43:36;13.63;;;5.65;;
62848;SDS011;48941;49.516;8.286;2023-06-22T13:46:04;10.88;;;5.97;;
62848;SDS011;48941;49.516;8.286;2023-06-22T13:48:32;13.40;;;5.95;;
62848;SDS011;48941;49.516;8.286;2023-06-22T13:51:00;15.90;;;6.30;;
62848;SDS011;48941;49.516;8.286;2023-06-22T13:53:28;11.38;;;5.78;;
62848;SDS011;48941;49.516;8.286;2023-06-22T13:55:56;12.40;;;5.80;;
62848;SDS011;48941;49.516;8.286;2023-06-22T13:58:25;13.35;;;5.85;;
62848;SDS011;48941;49.516;8.286;2023-06-22T14:00:53;9.30;;;5.40;;
62848;SDS011;48941;49.516;8.286;2023-06-22T14:03:22;15.77;;;5.78;;
62848;SDS011;48941;49.516;8.286;2023-06-22T14:05:50;9.45;;;5.32;;
62848;SDS011;48941;49.516;8.286;2023-06-22T14:08:20;11.30;;;5.63;;
62848;SDS011;48941;49.516;8.286;2023-06-22T14:10:52;12.60;;;5.32;;
62848;SDS011;48941;49.516;8.286;2023-06-22T14:13:20;14.05;;;5.93;;
62848;SDS011;48941;49.516;8.286;2023-06-22T14:15:50;12.48;;;5.45;;
62848;SDS011;48941;49.516;8.286;2023-06-22T14:18:18;16.63;;;6.18;;
62848;SDS011;48941;49.516;8.286;2023-06-22T14:20:48;12.38;;;6.05;;
62848;SDS011;48941;49.516;8.286;2023-06-22T14:23:16;11.45;;;5.85;;
62848;SDS011;48941;49.516;8.286;2023-06-22T14:25:44;11.82;;;5.88;;
62848;SDS011;48941;49.516;8.286;2023-06-22T14:28:12;15.68;;;6.18;;
62848;SDS011;48941;49.516;8.286;2023-06-22T14:30:39;12.30;;;6.20;;
62848;SDS011;48941;49.516;8.286;2023-06-22T14:33:09;14.77;;;6.38;;
62848;SDS011;48941;49.516;8.286;2023-06-22T14:35:37;11.60;;;5.57;;
62848;SDS011;48941;49.516;8.286;2023-06-22T14:38:05;15.63;;;5.97;;
62848;SDS011;48941;49.516;8.286;2023-06-22T14:40:32;15.45;;;6.20;;
62848;SDS011;48941;49.516;8.286;2023-06-22T14:43:19;11.00;;;5.93;;
62848;SDS011;48941;49.516;8.286;2023-06-22T14:45:46;19.58;;;6.68;;
62848;SDS011;48941;49.516;8.286;2023-06-22T14:48:18;12.45;;;6.47;;
62848;SDS011;48941;49.516;8.286;2023-06-22T14:50:46;15.50;;;6.60;;